sensor_id;sensor_type;location;lat;lon;timestamp;pressure;altitude;pressure_sealevel;temperature;humidity
51227;BME280;42714;48.260;10.980;2023-06-22T00:03:33;970.8;;;22.0;100.0
51227;BME280;42714;48.260;10.980;2023-06-22T00:08:34;970.7;;;21.9;100.0
51227;BME280;42714;48.260;10.980;2023-06-22T00:13:35;970.8;;;21.7;100.0
51227;BME280;42714;48.260;10.980;2023-06-22T00:18:36;970.7;;;21.8;100.0
51227;BME280;42714;48.260;10.980;2023-06-22T00:23:37;970.8;;;21.8;100.0
51227;BME280;42714;48.260;10.980;2023-06-22T00:28:38;970.7;;;21.7;100.0
51227;BME280;42714;48.260;10.980;2023-06-22T00:33:39;970.7;;;21.6;100.0
51227;BME280;42714;48.260;10.980;2023-06-22T00:38:40;970.7;;;21.5;100.0
51227;BME280;42714;48.260;10.980;2023-06-22T00:43:41;970.7;;;21.6;100.0
51227;BME280;42714;48.260;10.980;2023-06-22T00:48:42;970.6;;;21.6;100.0
51227;BME280;42714;48.260;10.980;2023-06-22T00:53:43;970.5;;;21.6;100.0
51227;BME280;42714;48.260;10.980;2023-06-22T00:58:44;970.3;;;21.5;100.0
51227;BME280;42714;48.260;10.980;2023-06-22T01:03:45;970.3;;;21.5;100.0
51227;BME280;42714;48.260;10.980;2023-06-22T01:08:48;970.4;;;21.5;100.0
51227;BME280;42714;48.260;10.980;2023-06-22T01:13:50;970.5;;;21.5;100.0
51227;BME280;42714;48.260;10.980;2023-06-22T01:18:48;970.4;;;21.5;100.0
51227;BME280;42714;48.260;10.980;2023-06-22T01:23:51;970.5;;;21.4;100.0
51227;BME280;42714;48.260;10.980;2023-06-22T01:28:50;970.5;;;21.5;100.0
51227;BME280;42714;48.260;10.980;2023-06-22T01:33:53;970.5;;;21.5;100.0
51227;BME280;42714;48.260;10.980;2023-06-22T01:38:52;970.5;;;21.5;100.0
51227;BME280;42714;48.260;10.980;2023-06-22T01:43:53;970.6;;;21.5;100.0
51227;BME280;42714;48.260;10.980;2023-06-22T01:48:54;970.6;;;21.6;100.0
51227;BME280;42714;48.260;10.980;2023-06-22T01:53:55;970.6;;;21.7;100.0
51227;BME280;42714;48.260;10.980;2023-06-22T01:59:04;970.7;;;21.7;100.0
51227;BME280;42714;48.260;10.980;2023-06-22T02:04:01;970.7;;;21.6;100.0
51227;BME280;42714;48.260;10.980;2023-06-22T02:08:59;970.8;;;21.6;100.0
51227;BME280;42714;48.260;10.980;2023-06-22T02:13:59;970.7;;;21.5;100.0
51227;BME280;42714;48.260;10.980;2023-06-22T02:19:01;970.6;;;21.4;100.0
51227;BME280;42714;48.260;10.980;2023-06-22T02:24:01;970.7;;;21.3;100.0
51227;BME280;42714;48.260;10.980;2023-06-22T02:29:02;970.7;;;21.2;100.0
51227;BME280;42714;48.260;10.980;2023-06-22T02:34:03;970.8;;;21.2;100.0
51227;BME280;42714;48.260;10.980;2023-06-22T02:44:05;970.7;;;21.1;100.0
51227;BME280;42714;48.260;10.980;2023-06-22T02:49:06;970.6;;;21.1;100.0
51227;BME280;42714;48.260;10.980;2023-06-22T02:54:07;970.6;;;21.1;100.0
51227;BME280;42714;48.260;10.980;2023-06-22T02:59:08;970.6;;;21.1;100.0
51227;BME280;42714;48.260;10.980;2023-06-22T03:04:09;970.6;;;21.1;100.0
51227;BME280;42714;48.260;10.980;2023-06-22T03:09:10;970.7;;;21.0;100.0
51227;BME280;42714;48.260;10.980;2023-06-22T03:14:11;970.8;;;21.0;100.0
51227;BME280;42714;48.260;10.980;2023-06-22T03:19:12;970.7;;;20.9;100.0
51227;BME280;42714;48.260;10.980;2023-06-22T03:24:13;970.7;;;20.8;100.0
51227;BME280;42714;48.260;10.980;2023-06-22T03:29:14;970.7;;;20.8;100.0
51227;BME280;42714;48.260;10.980;2023-06-22T03:34:15;970.7;;;20.8;100.0
51227;BME280;42714;48.260;10.980;2023-06-22T03:39:16;970.7;;;20.8;100.0
51227;BME280;42714;48.260;10.980;2023-06-22T03:44:17;970.7;;;20.7;100.0
51227;BME280;42714;48.260;10.980;2023-06-22T03:49:18;970.7;;;20.8;100.0
51227;BME280;42714;48.260;10.980;2023-06-22T03:54:19;970.7;;;20.8;100.0
51227;BME280;42714;48.260;10.980;2023-06-22T03:59:20;970.8;;;20.9;100.0
51227;BME280;42714;48.260;10.980;2023-06-22T04:04:21;970.8;;;20.9;100.0
51227;BME280;42714;48.260;10.980;2023-06-22T04:09:22;970.8;;;21.0;100.0
51227;BME280;42714;48.260;10.980;2023-06-22T04:14:23;970.7;;;21.1;100.0
51227;BME280;42714;48.260;10.980;2023-06-22T04:19:24;970.8;;;21.2;100.0
51227;BME280;42714;48.260;10.980;2023-06-22T04:24:25;970.7;;;21.3;100.0
51227;BME280;42714;48.260;10.980;2023-06-22T04:29:26;970.7;;;21.4;100.0
51227;BME280;42714;48.260;10.980;2023-06-22T04:34:27;970.6;;;21.5;100.0
51227;BME280;42714;48.260;10.980;2023-06-22T04:39:28;970.5;;;21.6;100.0
51227;BME280;42714;48.260;10.980;2023-06-22T04:44:29;970.5;;;21.7;100.0
51227;BME280;42714;48.260;10.980;2023-06-22T04:49:30;970.6;;;21.8;100.0
51227;BME280;42714;48.260;10.980;2023-06-22T04:54:31;970.7;;;22.0;100.0
51227;BME280;42714;48.260;10.980;2023-06-22T04:59:32;970.8;;;22.1;100.0
51227;BME280;42714;48.260;10.980;2023-06-22T05:04:33;970.8;;;22.3;100.0
51227;BME280;42714;48.260;10.980;2023-06-22T05:09:34;970.7;;;22.4;100.0
51227;BME280;42714;48.260;10.980;2023-06-22T05:14:35;970.6;;;22.5;100.0
51227;BME280;42714;48.260;10.980;2023-06-22T05:19:36;970.5;;;22.6;100.0
51227;BME280;42714;48.260;10.980;2023-06-22T05:24:37;970.4;;;22.6;100.0
51227;BME280;42714;48.260;10.980;2023-06-22T05:29:38;970.5;;;22.7;100.0
51227;BME280;42714;48.260;10.980;2023-06-22T05:34:39;970.4;;;22.8;100.0
51227;BME280;42714;48.260;10.980;2023-06-22T05:39:40;970.4;;;23.1;100.0
51227;BME280;42714;48.260;10.980;2023-06-22T05:44:41;970.5;;;23.3;100.0
51227;BME280;42714;48.260;10.980;2023-06-22T05:49:42;970.5;;;23.4;100.0
51227;BME280;42714;48.260;10.980;2023-06-22T05:54:43;970.5;;;23.3;100.0
51227;BME280;42714;48.260;10.980;2023-06-22T05:59:44;970.5;;;23.6;100.0
51227;BME280;42714;48.260;10.980;2023-06-22T06:04:45;970.4;;;24.0;100.0
51227;BME280;42714;48.260;10.980;2023-06-22T06:09:46;970.2;;;24.0;100.0
51227;BME280;42714;48.260;10.980;2023-06-22T06:14:47;970.1;;;24.3;100.0
51227;BME280;42714;48.260;10.980;2023-06-22T06:19:48;970.2;;;24.6;100.0
51227;BME280;42714;48.260;10.980;2023-06-22T06:24:49;970.1;;;24.9;100.0
51227;BME280;42714;48.260;10.980;2023-06-22T06:29:50;970.2;;;25.1;100.0
51227;BME280;42714;48.260;10.980;2023-06-22T06:34:51;970.2;;;25.4;100.0
51227;BME280;42714;48.260;10.980;2023-06-22T06:39:52;970.2;;;25.7;100.0
51227;BME280;42714;48.260;10.980;2023-06-22T06:44:53;970.2;;;26.1;100.0
51227;BME280;42714;48.260;10.980;2023-06-22T06:49:54;970.2;;;26.6;100.0
51227;BME280;42714;48.260;10.980;2023-06-22T06:54:55;970.2;;;27.0;100.0
51227;BME280;42714;48.260;10.980;2023-06-22T06:59:56;970.1;;;27.2;100.0
51227;BME280;42714;48.260;10.980;2023-06-22T07:04:57;970.1;;;27.5;100.0
51227;BME280;42714;48.260;10.980;2023-06-22T07:09:58;970.0;;;27.4;100.0
51227;BME280;42714;48.260;10.980;2023-06-22T07:15:01;969.9;;;27.5;100.0
51227;BME280;42714;48.260;10.980;2023-06-22T07:20:01;969.9;;;28.0;100.0
51227;BME280;42714;48.260;10.980;2023-06-22T07:25:01;969.8;;;27.9;100.0
51227;BME280;42714;48.260;10.980;2023-06-22T07:30:02;969.8;;;28.1;100.0
51227;BME280;42714;48.260;10.980;2023-06-22T07:45:06;969.7;;;28.2;100.0
51227;BME280;42714;48.260;10.980;2023-06-22T07:50:06;969.6;;;28.7;100.0
51227;BME280;42714;48.260;10.980;2023-06-22T07:55:07;969.6;;;29.1;96.0
51227;BME280;42714;48.260;10.980;2023-06-22T08:05:09;969.8;;;29.4;89.9
51227;BME280;42714;48.260;10.980;2023-06-22T08:10:11;969.7;;;29.7;87.3
51227;BME280;42714;48.260;10.980;2023-06-22T08:15:11;969.7;;;30.3;75.6
51227;BME280;42714;48.260;10.980;2023-06-22T08:20:12;969.6;;;29.9;85.7
51227;BME280;42714;48.260;10.980;2023-06-22T08:25:13;969.5;;;30.5;82.6
51227;BME280;42714;48.260;10.980;2023-06-22T08:30:15;969.5;;;31.2;70.6
51227;BME280;42714;48.260;10.980;2023-06-22T08:35:15;969.6;;;31.4;73.8
51227;BME280;42714;48.260;10.980;2023-06-22T08:40:16;969.7;;;31.8;69.9
51227;BME280;42714;48.260;10.980;2023-06-22T08:45:17;969.7;;;31.7;68.5
51227;BME280;42714;48.260;10.980;2023-06-22T08:50:18;969.7;;;31.6;69.6
51227;BME280;42714;48.260;10.980;2023-06-22T08:55:19;969.6;;;30.8;74.4
51227;BME280;42714;48.260;10.980;2023-06-22T09:00:20;969.6;;;30.4;78.5
51227;BME280;42714;48.260;10.980;2023-06-22T09:05:21;969.5;;;30.6;78.1
51227;BME280;42714;48.260;10.980;2023-06-22T09:10:22;969.5;;;30.8;78.0
51227;BME280;42714;48.260;10.980;2023-06-22T09:15:23;969.5;;;31.0;69.5
51227;BME280;42714;48.260;10.980;2023-06-22T09:20:24;969.5;;;30.8;71.1
51227;BME280;42714;48.260;10.980;2023-06-22T09:25:25;969.4;;;30.4;77.1
51227;BME280;42714;48.260;10.980;2023-06-22T09:30:26;969.4;;;30.5;80.4
51227;BME280;42714;48.260;10.980;2023-06-22T09:35:27;969.3;;;30.7;81.0
51227;BME280;42714;48.260;10.980;2023-06-22T09:40:28;969.3;;;30.9;81.1
51227;BME280;42714;48.260;10.980;2023-06-22T09:45:29;969.2;;;31.3;72.7
51227;BME280;42714;48.260;10.980;2023-06-22T09:50:30;969.3;;;31.2;73.1
51227;BME280;42714;48.260;10.980;2023-06-22T09:55:31;969.1;;;31.4;67.9
51227;BME280;42714;48.260;10.980;2023-06-22T10:00:32;969.2;;;31.3;75.6
51227;BME280;42714;48.260;10.980;2023-06-22T10:05:33;969.1;;;31.5;73.1
51227;BME280;42714;48.260;10.980;2023-06-22T10:10:34;969.2;;;31.7;62.8
51227;BME280;42714;48.260;10.980;2023-06-22T10:15:35;969.1;;;31.3;71.0
51227;BME280;42714;48.260;10.980;2023-06-22T10:20:36;969.1;;;31.5;74.1
51227;BME280;42714;48.260;10.980;2023-06-22T10:25:37;969.1;;;31.7;65.7
51227;BME280;42714;48.260;10.980;2023-06-22T10:30:41;969.2;;;31.7;75.6
51227;BME280;42714;48.260;10.980;2023-06-22T10:35:39;969.0;;;31.9;63.7
51227;BME280;42714;48.260;10.980;2023-06-22T10:40:40;969.1;;;32.0;67.3
51227;BME280;42714;48.260;10.980;2023-06-22T10:45:41;969.0;;;32.2;56.5
51227;BME280;42714;48.260;10.980;2023-06-22T10:50:42;968.9;;;32.1;66.2
51227;BME280;42714;48.260;10.980;2023-06-22T10:55:43;968.9;;;32.4;68.9
51227;BME280;42714;48.260;10.980;2023-06-22T11:00:45;968.9;;;32.6;67.1
51227;BME280;42714;48.260;10.980;2023-06-22T11:05:45;968.9;;;32.8;64.3
51227;BME280;42714;48.260;10.980;2023-06-22T11:10:46;968.8;;;33.1;65.4
51227;BME280;42714;48.260;10.980;2023-06-22T11:15:47;968.8;;;33.5;67.4
51227;BME280;42714;48.260;10.980;2023-06-22T11:20:48;968.8;;;33.8;63.4
51227;BME280;42714;48.260;10.980;2023-06-22T11:25:49;968.8;;;34.1;62.6
51227;BME280;42714;48.260;10.980;2023-06-22T11:30:51;968.8;;;34.1;59.8
51227;BME280;42714;48.260;10.980;2023-06-22T11:35:51;968.8;;;34.3;58.5
51227;BME280;42714;48.260;10.980;2023-06-22T11:40:52;968.7;;;34.5;59.9
51227;BME280;42714;48.260;10.980;2023-06-22T11:45:53;968.6;;;34.7;58.1
51227;BME280;42714;48.260;10.980;2023-06-22T11:50:54;968.5;;;34.7;54.9
51227;BME280;42714;48.260;10.980;2023-06-22T11:55:55;968.5;;;34.4;51.3
51227;BME280;42714;48.260;10.980;2023-06-22T12:00:56;968.5;;;34.1;55.0
51227;BME280;42714;48.260;10.980;2023-06-22T12:05:59;968.5;;;34.2;61.9
51227;BME280;42714;48.260;10.980;2023-06-22T12:10:58;968.4;;;34.2;53.6
51227;BME280;42714;48.260;10.980;2023-06-22T12:15:59;968.3;;;34.1;56.6
51227;BME280;42714;48.260;10.980;2023-06-22T12:21:00;968.2;;;34.4;53.9
51227;BME280;42714;48.260;10.980;2023-06-22T12:26:01;968.3;;;34.6;53.9
51227;BME280;42714;48.260;10.980;2023-06-22T12:31:02;968.2;;;34.5;55.1
51227;BME280;42714;48.260;10.980;2023-06-22T12:36:04;968.2;;;34.5;50.9
51227;BME280;42714;48.260;10.980;2023-06-22T12:41:04;968.1;;;34.8;50.6
51227;BME280;42714;48.260;10.980;2023-06-22T12:46:05;968.0;;;35.1;48.0
51227;BME280;42714;48.260;10.980;2023-06-22T12:51:07;968.0;;;35.1;48.1
51227;BME280;42714;48.260;10.980;2023-06-22T12:56:07;968.0;;;35.0;49.0
51227;BME280;42714;48.260;10.980;2023-06-22T13:01:08;968.0;;;34.9;46.6
51227;BME280;42714;48.260;10.980;2023-06-22T13:06:09;968.0;;;35.0;49.0
51227;BME280;42714;48.260;10.980;2023-06-22T13:11:10;968.0;;;35.4;52.4
51227;BME280;42714;48.260;10.980;2023-06-22T13:16:12;968.0;;;35.6;46.8
51227;BME280;42714;48.260;10.980;2023-06-22T13:21:12;968.0;;;35.7;45.9
51227;BME280;42714;48.260;10.980;2023-06-22T13:26:13;967.9;;;35.5;46.3
51227;BME280;42714;48.260;10.980;2023-06-22T13:31:14;967.9;;;35.4;49.3
51227;BME280;42714;48.260;10.980;2023-06-22T13:36:16;967.8;;;35.4;50.6
51227;BME280;42714;48.260;10.980;2023-06-22T13:41:17;967.7;;;35.4;44.4
51227;BME280;42714;48.260;10.980;2023-06-22T13:46:18;967.7;;;35.4;46.3
51227;BME280;42714;48.260;10.980;2023-06-22T13:51:19;967.6;;;35.5;40.7
51227;BME280;42714;48.260;10.980;2023-06-22T13:56:20;967.6;;;35.5;43.3
51227;BME280;42714;48.260;10.980;2023-06-22T14:01:21;967.6;;;35.6;44.6
51227;BME280;42714;48.260;10.980;2023-06-22T14:06:22;967.5;;;35.7;42.8
51227;BME280;42714;48.260;10.980;2023-06-22T14:11:23;967.4;;;35.7;41.6
51227;BME280;42714;48.260;10.980;2023-06-22T14:16:24;967.4;;;35.5;40.9
51227;BME280;42714;48.260;10.980;2023-06-22T14:21:25;967.4;;;35.5;42.8
51227;BME280;42714;48.260;10.980;2023-06-22T14:26:26;967.4;;;35.5;39.3
51227;BME280;42714;48.260;10.980;2023-06-22T14:31:27;967.3;;;35.5;39.3
51227;BME280;42714;48.260;10.980;2023-06-22T14:36:28;967.3;;;35.5;36.8
51227;BME280;42714;48.260;10.980;2023-06-22T14:41:29;967.2;;;35.4;37.3
51227;BME280;42714;48.260;10.980;2023-06-22T14:46:30;967.1;;;35.4;36.9
51227;BME280;42714;48.260;10.980;2023-06-22T14:51:31;967.0;;;35.3;38.2
51227;BME280;42714;48.260;10.980;2023-06-22T14:56:32;967.0;;;35.1;35.4
51227;BME280;42714;48.260;10.980;2023-06-22T15:01:33;966.9;;;35.0;38.0
51227;BME280;42714;48.260;10.980;2023-06-22T15:06:34;966.8;;;35.0;36.5
51227;BME280;42714;48.260;10.980;2023-06-22T15:11:35;966.7;;;35.0;37.1
51227;BME280;42714;48.260;10.980;2023-06-22T15:16:36;966.7;;;34.9;36.7
51227;BME280;42714;48.260;10.980;2023-06-22T15:21:37;966.6;;;34.9;39.5
51227;BME280;42714;48.260;10.980;2023-06-22T15:26:38;966.4;;;34.9;39.9
51227;BME280;42714;48.260;10.980;2023-06-22T15:31:39;966.3;;;34.8;38.1
51227;BME280;42714;48.260;10.980;2023-06-22T15:36:40;966.3;;;34.7;37.5
51227;BME280;42714;48.260;10.980;2023-06-22T15:41:41;966.3;;;34.7;39.7
51227;BME280;42714;48.260;10.980;2023-06-22T15:46:42;966.3;;;34.6;39.7
51227;BME280;42714;48.260;10.980;2023-06-22T15:51:43;966.3;;;34.5;39.7
51227;BME280;42714;48.260;10.980;2023-06-22T15:56:44;966.4;;;34.4;40.4
51227;BME280;42714;48.260;10.980;2023-06-22T16:01:45;966.4;;;34.3;41.2
51227;BME280;42714;48.260;10.980;2023-06-22T16:06:46;966.4;;;34.2;42.1
51227;BME280;42714;48.260;10.980;2023-06-22T16:11:47;966.5;;;34.2;43.6
51227;BME280;42714;48.260;10.980;2023-06-22T16:16:48;966.4;;;34.2;45.0
51227;BME280;42714;48.260;10.980;2023-06-22T16:21:49;966.5;;;34.2;45.0
51227;BME280;42714;48.260;10.980;2023-06-22T16:26:50;966.4;;;34.1;42.9
51227;BME280;42714;48.260;10.980;2023-06-22T16:31:51;966.4;;;33.8;44.2
51227;BME280;42714;48.260;10.980;2023-06-22T16:36:52;966.3;;;33.6;46.2
51227;BME280;42714;48.260;10.980;2023-06-22T16:41:53;966.4;;;33.4;54.8
51227;BME280;42714;48.260;10.980;2023-06-22T16:46:54;966.1;;;33.2;63.0
51227;BME280;42714;48.260;10.980;2023-06-22T16:51:55;966.2;;;33.0;67.1
51227;BME280;42714;48.260;10.980;2023-06-22T16:56:59;966.3;;;32.8;67.3
51227;BME280;42714;48.260;10.980;2023-06-22T17:01:57;966.1;;;32.5;68.4
51227;BME280;42714;48.260;10.980;2023-06-22T17:06:58;965.8;;;32.3;66.5
51227;BME280;42714;48.260;10.980;2023-06-22T17:11:59;965.5;;;32.2;67.0
51227;BME280;42714;48.260;10.980;2023-06-22T17:17:00;965.7;;;31.9;68.7
51227;BME280;42714;48.260;10.980;2023-06-22T17:22:01;965.7;;;31.8;71.1
51227;BME280;42714;48.260;10.980;2023-06-22T17:27:02;966.0;;;31.7;72.9
51227;BME280;42714;48.260;10.980;2023-06-22T17:32:04;966.1;;;31.6;76.7
51227;BME280;42714;48.260;10.980;2023-06-22T17:37:04;966.2;;;31.6;74.2
51227;BME280;42714;48.260;10.980;2023-06-22T17:42:06;966.3;;;31.5;76.0
51227;BME280;42714;48.260;10.980;2023-06-22T17:47:06;966.6;;;31.4;78.6
51227;BME280;42714;48.260;10.980;2023-06-22T17:52:14;966.8;;;31.3;80.2
51227;BME280;42714;48.260;10.980;2023-06-22T18:02:09;967.0;;;31.1;85.4
51227;BME280;42714;48.260;10.980;2023-06-22T18:07:10;967.0;;;31.0;81.4
51227;BME280;42714;48.260;10.980;2023-06-22T18:12:11;966.8;;;30.9;74.8
51227;BME280;42714;48.260;10.980;2023-06-22T18:17:12;967.1;;;30.1;70.8
51227;BME280;42714;48.260;10.980;2023-06-22T18:22:13;967.3;;;28.8;82.3
51227;BME280;42714;48.260;10.980;2023-06-22T18:27:14;967.4;;;28.0;89.9
51227;BME280;42714;48.260;10.980;2023-06-22T18:32:15;967.3;;;27.2;84.4
51227;BME280;42714;48.260;10.980;2023-06-22T18:37:16;967.2;;;26.9;83.5
51227;BME280;42714;48.260;10.980;2023-06-22T18:42:17;967.1;;;26.8;78.7
51227;BME280;42714;48.260;10.980;2023-06-22T18:52:24;967.6;;;26.6;77.5
51227;BME280;42714;48.260;10.980;2023-06-22T18:57:21;967.4;;;26.3;81.6
51227;BME280;42714;48.260;10.980;2023-06-22T19:07:23;967.5;;;26.0;82.2
51227;BME280;42714;48.260;10.980;2023-06-22T19:12:23;967.5;;;25.9;83.3
51227;BME280;42714;48.260;10.980;2023-06-22T19:17:24;967.6;;;25.8;88.8
51227;BME280;42714;48.260;10.980;2023-06-22T19:22:42;967.5;;;25.7;94.0
51227;BME280;42714;48.260;10.980;2023-06-22T19:27:29;967.6;;;25.8;100.0
51227;BME280;42714;48.260;10.980;2023-06-22T19:32:27;967.9;;;25.8;100.0
51227;BME280;42714;48.260;10.980;2023-06-22T19:37:28;968.4;;;25.9;100.0
51227;BME280;42714;48.260;10.980;2023-06-22T19:42:29;968.6;;;26.1;94.3
51227;BME280;42714;48.260;10.980;2023-06-22T19:47:30;968.7;;;25.1;100.0
51227;BME280;42714;48.260;10.980;2023-06-22T19:52:32;968.2;;;23.8;100.0
51227;BME280;42714;48.260;10.980;2023-06-22T19:57:32;967.3;;;22.8;100.0
51227;BME280;42714;48.260;10.980;2023-06-22T20:02:33;968.7;;;22.4;100.0
51227;BME280;42714;48.260;10.980;2023-06-22T20:07:37;969.3;;;22.0;100.0
51227;BME280;42714;48.260;10.980;2023-06-22T20:12:35;969.5;;;21.6;100.0
51227;BME280;42714;48.260;10.980;2023-06-22T20:17:40;969.6;;;21.5;100.0
51227;BME280;42714;48.260;10.980;2023-06-22T20:27:42;969.3;;;21.7;100.0
51227;BME280;42714;48.260;10.980;2023-06-22T20:33:01;969.2;;;21.7;100.0
51227;BME280;42714;48.260;10.980;2023-06-22T20:37:40;969.3;;;21.9;100.0
51227;BME280;42714;48.260;10.980;2023-06-22T20:42:41;969.5;;;22.0;100.0
51227;BME280;42714;48.260;10.980;2023-06-22T20:47:42;969.8;;;21.9;100.0
51227;BME280;42714;48.260;10.980;2023-06-22T20:52:43;969.7;;;21.8;100.0
51227;BME280;42714;48.260;10.980;2023-06-22T20:57:44;969.5;;;21.8;100.0
51227;BME280;42714;48.260;10.980;2023-06-22T21:02:45;969.3;;;21.7;100.0
51227;BME280;42714;48.260;10.980;2023-06-22T21:07:46;969.4;;;21.6;100.0
51227;BME280;42714;48.260;10.980;2023-06-22T21:12:48;969.6;;;21.5;100.0
51227;BME280;42714;48.260;10.980;2023-06-22T21:17:48;969.5;;;21.4;100.0
51227;BME280;42714;48.260;10.980;2023-06-22T21:22:49;969.3;;;21.3;100.0
51227;BME280;42714;48.260;10.980;2023-06-22T21:27:50;969.1;;;20.9;100.0
51227;BME280;42714;48.260;10.980;2023-06-22T21:32:51;969.1;;;20.7;100.0
51227;BME280;42714;48.260;10.980;2023-06-22T21:37:53;969.2;;;20.6;100.0
51227;BME280;42714;48.260;10.980;2023-06-22T21:42:53;969.3;;;20.5;100.0
51227;BME280;42714;48.260;10.980;2023-06-22T21:47:54;969.3;;;20.4;100.0
51227;BME280;42714;48.260;10.980;2023-06-22T21:52:55;969.5;;;20.4;100.0
51227;BME280;42714;48.260;10.980;2023-06-22T21:57:56;969.6;;;20.4;100.0
51227;BME280;42714;48.260;10.980;2023-06-22T22:02:57;969.8;;;20.4;100.0
51227;BME280;42714;48.260;10.980;2023-06-22T22:07:58;969.8;;;20.4;100.0
51227;BME280;42714;48.260;10.980;2023-06-22T22:12:59;969.9;;;20.4;100.0
51227;BME280;42714;48.260;10.980;2023-06-22T22:18:00;969.9;;;20.3;100.0
51227;BME280;42714;48.260;10.980;2023-06-22T22:23:02;970.0;;;20.3;100.0
51227;BME280;42714;48.260;10.980;2023-06-22T22:28:02;970.1;;;20.2;100.0
51227;BME280;42714;48.260;10.980;2023-06-22T22:33:03;970.2;;;20.3;100.0
51227;BME280;42714;48.260;10.980;2023-06-22T22:38:04;970.4;;;20.3;100.0
51227;BME280;42714;48.260;10.980;2023-06-22T22:43:05;970.4;;;20.2;100.0
51227;BME280;42714;48.260;10.980;2023-06-22T22:48:08;970.4;;;20.1;100.0
51227;BME280;42714;48.260;10.980;2023-06-22T22:53:07;970.3;;;20.1;100.0
51227;BME280;42714;48.260;10.980;2023-06-22T22:58:08;970.5;;;20.0;100.0
51227;BME280;42714;48.260;10.980;2023-06-22T23:03:09;970.6;;;20.0;100.0
51227;BME280;42714;48.260;10.980;2023-06-22T23:08:10;970.7;;;20.0;100.0
51227;BME280;42714;48.260;10.980;2023-06-22T23:13:11;970.7;;;20.0;100.0
51227;BME280;42714;48.260;10.980;2023-06-22T23:18:12;971.0;;;20.0;100.0
51227;BME280;42714;48.260;10.980;2023-06-22T23:23:13;971.1;;;19.8;100.0
51227;BME280;42714;48.260;10.980;2023-06-22T23:28:14;971.0;;;19.9;100.0
51227;BME280;42714;48.260;10.980;2023-06-22T23:33:15;971.2;;;20.0;100.0
51227;BME280;42714;48.260;10.980;2023-06-22T23:38:16;971.2;;;19.9;100.0
51227;BME280;42714;48.260;10.980;2023-06-22T23:43:17;971.3;;;19.9;100.0
51227;BME280;42714;48.260;10.980;2023-06-22T23:48:18;971.3;;;19.9;100.0
51227;BME280;42714;48.260;10.980;2023-06-22T23:53:19;971.3;;;19.9;100.0
51227;BME280;42714;48.260;10.980;2023-06-22T23:58:20;971.3;;;19.8;100.0
